Time;durP1;ratioP1;P1;durP2;ratioP2;P2;SDS_P1;SDS_P2;PMS_P1;PMS_P2;Temp;Humidity;BMP_temperature;BMP_pressure;BME280_temperature;BME280_humidity;BME280_pressure;Samples;Min_cycle;Max_cycle;Signal;HPM_P1;HPM_P2
2022/11/17 00:00:29;;;;;;;1.05;0.93;;;12.00;99.90;;;;;;5061578;28;20193;-61
2022/11/17 00:02:55;;;;;;;2.70;1.52;;;12.10;99.90;;;;;;5057723;28;20182;-61
2022/11/17 00:05:21;;;;;;;1.20;1.17;;;12.00;99.90;;;;;;5093417;28;20182;-61
2022/11/17 00:07:48;;;;;;;1.75;1.15;;;12.00;99.90;;;;;;5062324;28;20642;-62
2022/11/17 00:10:15;;;;;;;0.60;0.60;;;12.10;99.90;;;;;;5062735;28;20181;-62
2022/11/17 00:15:25;;;;;;;3.58;0.90;;;12.20;99.90;;;;;;5052431;28;20298;-60
2022/11/17 00:23:24;;;;;;;1.00;0.95;;;12.20;99.90;;;;;;5053062;28;20211;-61
2022/11/17 00:25:50;;;;;;;3.78;0.93;;;12.20;99.90;;;;;;5063958;28;20186;-61
2022/11/17 00:28:15;;;;;;;1.77;0.95;;;12.10;99.90;;;;;;5058448;28;20181;-61
2022/11/17 00:36:09;;;;;;;3.45;1.25;;;12.10;99.90;;;;;;5052794;28;20200;-61
2022/11/17 00:38:35;;;;;;;0.80;0.80;;;12.00;99.90;;;;;;5061630;28;20181;-61
2022/11/17 00:41:00;;;;;;;3.83;0.90;;;11.90;99.90;;;;;;5066003;28;20205;-62
2022/11/17 00:43:26;;;;;;;2.15;1.33;;;12.00;99.90;;;;;;5052553;28;20193;-61
2022/11/17 00:45:51;;;;;;;1.70;1.05;;;12.00;99.90;;;;;;5052813;28;20629;-61
2022/11/17 00:48:17;;;;;;;1.38;1.13;;;12.00;99.90;;;;;;5056243;28;20204;-61
2022/11/17 00:50:43;;;;;;;2.05;0.90;;;12.00;99.90;;;;;;5058639;28;20222;-61
2022/11/17 00:53:08;;;;;;;6.93;1.17;;;12.00;99.90;;;;;;5054849;28;20239;-61
2022/11/17 00:55:34;;;;;;;1.30;1.05;;;12.00;99.90;;;;;;5059410;28;20635;-61
2022/11/17 00:58:00;;;;;;;7.47;2.05;;;12.00;99.90;;;;;;5051350;28;20213;-62
2022/11/17 01:00:25;;;;;;;1.48;0.95;;;12.00;99.90;;;;;;5060111;28;20193;-62
2022/11/17 01:02:51;;;;;;;4.50;1.42;;;12.00;99.90;;;;;;5058030;28;20182;-61
2022/11/17 01:05:17;;;;;;;2.33;2.20;;;12.00;99.90;;;;;;5051365;28;20265;-62
2022/11/17 01:07:42;;;;;;;3.15;1.73;;;12.10;99.90;;;;;;5063985;28;20645;-61
2022/11/17 01:10:09;;;;;;;7.25;1.48;;;12.10;99.90;;;;;;5066872;28;20231;-61
2022/11/17 01:12:34;;;;;;;2.55;1.42;;;12.10;99.90;;;;;;5070046;28;20608;-61
2022/11/17 01:15:00;;;;;;;1.23;0.90;;;12.00;99.90;;;;;;5055843;28;20182;-62
2022/11/17 01:17:26;;;;;;;4.75;1.38;;;12.00;99.90;;;;;;5054295;28;20201;-61
2022/11/17 01:19:51;;;;;;;7.20;1.30;;;12.00;99.90;;;;;;5093100;28;20194;-62
2022/11/17 01:22:17;;;;;;;2.63;1.23;;;12.00;99.90;;;;;;5066128;28;20281;-62
2022/11/17 01:24:43;;;;;;;4.82;1.58;;;12.10;99.90;;;;;;5061983;28;20185;-62
2022/11/17 01:27:08;;;;;;;9.35;1.58;;;12.10;99.90;;;;;;5055178;28;20651;-61
2022/11/17 01:29:34;;;;;;;3.95;1.40;;;12.20;99.90;;;;;;5064881;28;20185;-62
2022/11/17 01:31:59;;;;;;;8.25;2.08;;;12.20;99.90;;;;;;5057742;28;20185;-62
2022/11/17 01:34:25;;;;;;;2.45;1.38;;;12.20;99.90;;;;;;5054419;28;20190;-64
2022/11/17 01:39:35;;;;;;;4.53;2.08;;;12.20;99.90;;;;;;5087355;28;20249;-61
2022/11/17 01:42:17;;;;;;;6.90;2.50;;;12.20;99.90;;;;;;5058392;28;20276;-62
2022/11/17 01:44:49;;;;;;;3.53;1.70;;;12.20;99.90;;;;;;5059652;28;20189;-62
2022/11/17 01:47:35;;;;;;;3.60;1.17;;;12.30;99.90;;;;;;5060922;28;20239;-61
2022/11/17 01:50:33;;;;;;;1.67;1.38;;;12.30;99.90;;;;;;5067227;28;20546;-62
2022/11/17 01:53:02;;;;;;;1.90;1.73;;;12.20;99.90;;;;;;5070039;28;20193;-62
2022/11/17 01:55:52;;;;;;;6.40;2.05;;;12.10;99.90;;;;;;5060585;28;20188;-61
2022/11/17 01:58:24;;;;;;;3.03;2.05;;;12.10;99.90;;;;;;5065884;28;20220;-62
2022/11/17 02:00:51;;;;;;;6.40;1.55;;;12.10;99.90;;;;;;5056132;28;20183;-62
2022/11/17 02:03:17;;;;;;;1.85;1.27;;;12.30;99.90;;;;;;5071301;28;20192;-61
2022/11/17 02:06:14;;;;;;;6.03;1.92;;;12.40;99.90;;;;;;5063733;28;20184;-62
2022/11/17 02:08:43;;;;;;;6.03;1.42;;;12.40;99.90;;;;;;5066735;28;20177;-62
2022/11/17 02:11:14;;;;;;;1.50;1.17;;;12.30;99.90;;;;;;5069755;28;20185;-61
2022/11/17 02:13:40;;;;;;;1.20;1.05;;;12.20;99.90;;;;;;5058062;28;20658;-61
2022/11/17 02:16:14;;;;;;;1.88;0.98;;;12.20;99.90;;;;;;5062181;28;20200;-61
2022/11/17 02:18:41;;;;;;;2.58;1.33;;;12.30;99.90;;;;;;5057536;28;20186;-61
2022/11/17 02:21:32;;;;;;;4.50;1.88;;;12.30;99.90;;;;;;5060784;28;20642;-62
2022/11/17 02:24:35;;;;;;;4.28;1.40;;;12.20;99.90;;;;;;5056446;28;20268;-61
2022/11/17 02:27:26;;;;;;;9.63;1.55;;;12.20;99.90;;;;;;5062957;28;20668;-61
2022/11/17 02:29:58;;;;;;;3.55;1.95;;;12.30;99.90;;;;;;5062373;28;20193;-62
2022/11/17 02:32:48;;;;;;;6.45;1.20;;;12.30;99.90;;;;;;5057414;28;20553;-61
2022/11/17 02:35:29;;;;;;;6.43;1.70;;;12.30;99.90;;;;;;5063942;28;20546;-61
2022/11/17 02:38:06;;;;;;;3.05;1.08;;;12.30;99.90;;;;;;5062059;28;20284;-61
2022/11/17 02:40:38;;;;;;;2.92;1.50;;;12.30;99.90;;;;;;5065988;28;20185;-61
2022/11/17 02:46:05;;;;;;;2.60;0.93;;;12.20;99.90;;;;;;5064527;28;20665;-61
2022/11/17 02:48:37;;;;;;;5.32;1.13;;;12.30;99.90;;;;;;5068413;28;20180;-62
2022/11/17 02:51:05;;;;;;;2.97;1.30;;;12.40;99.90;;;;;;5068779;28;20181;-61
2022/11/17 02:53:32;;;;;;;2.65;1.27;;;12.40;99.90;;;;;;5057371;28;20653;-61
2022/11/17 02:56:00;;;;;;;1.67;1.58;;;12.40;99.90;;;;;;5063528;28;20186;-61
2022/11/17 02:58:26;;;;;;;3.65;0.98;;;12.40;99.90;;;;;;5056667;28;20565;-59
2022/11/17 03:01:13;;;;;;;1.17;1.17;;;12.40;99.90;;;;;;5055672;28;20182;-64
2022/11/17 03:03:41;;;;;;;5.45;1.40;;;12.30;99.90;;;;;;5062632;28;20203;-60
2022/11/17 03:06:32;;;;;;;4.05;1.58;;;12.40;99.90;;;;;;5055262;28;20533;-60
2022/11/17 03:09:09;;;;;;;2.33;1.20;;;12.30;99.90;;;;;;5072129;28;20185;-60
2022/11/17 03:11:47;;;;;;;2.97;1.08;;;12.20;99.90;;;;;;5072765;28;20177;-60
2022/11/17 03:14:33;;;;;;;3.00;1.02;;;12.20;99.90;;;;;;5056142;28;20194;-60
2022/11/17 03:17:11;;;;;;;1.13;1.10;;;12.20;99.90;;;;;;5054646;28;20194;-60
2022/11/17 03:19:55;;;;;;;4.30;1.27;;;12.40;99.90;;;;;;5053047;28;20190;-60
2022/11/17 03:22:33;;;;;;;4.05;1.30;;;12.40;99.90;;;;;;5054361;28;20174;-60
2022/11/17 03:25:03;;;;;;;6.28;1.23;;;12.40;99.90;;;;;;5055398;28;20178;-60
2022/11/17 03:27:36;;;;;;;2.95;1.02;;;12.40;99.90;;;;;;5054745;28;20182;-59
2022/11/17 03:30:07;;;;;;;3.63;0.98;;;12.40;99.90;;;;;;5060906;28;20197;-62
2022/11/17 03:32:37;;;;;;;3.35;0.80;;;12.30;99.90;;;;;;5062972;28;20167;-60
2022/11/17 03:35:11;;;;;;;2.83;1.20;;;12.30;99.90;;;;;;5053406;28;20185;-60
2022/11/17 03:37:43;;;;;;;1.95;1.25;;;12.30;99.90;;;;;;5053753;28;20626;-60
2022/11/17 03:40:12;;;;;;;9.50;2.15;;;12.20;99.90;;;;;;5053369;28;20631;-60
2022/11/17 03:42:42;;;;;;;1.15;1.00;;;12.20;99.90;;;;;;5053967;28;20190;-62
2022/11/17 03:45:13;;;;;;;3.03;1.00;;;12.10;99.90;;;;;;5053907;28;20666;-61
2022/11/17 03:47:40;;;;;;;1.50;1.40;;;12.20;99.90;;;;;;5056855;28;20182;-60
2022/11/17 03:50:28;;;;;;;2.40;1.30;;;12.10;99.90;;;;;;5059402;28;20174;-60
2022/11/17 03:52:54;;;;;;;11.35;1.27;;;12.00;99.90;;;;;;5063186;28;20177;-60
2022/11/17 03:55:26;;;;;;;1.98;1.40;;;12.00;99.90;;;;;;5071170;28;20246;-60
2022/11/17 03:58:04;;;;;;;1.10;1.10;;;12.10;99.90;;;;;;5060637;28;20247;-60
2022/11/17 04:00:33;;;;;;;4.05;1.55;;;12.10;99.90;;;;;;5067964;28;20234;-60
2022/11/17 04:02:58;;;;;;;2.83;1.85;;;12.10;99.90;;;;;;5052755;28;20627;-61
2022/11/17 04:05:24;;;;;;;5.75;2.17;;;12.10;99.90;;;;;;5056232;28;20178;-60
2022/11/17 04:07:50;;;;;;;2.90;1.50;;;12.00;99.90;;;;;;5053588;28;20178;-61
2022/11/17 04:10:21;;;;;;;1.90;1.17;;;12.00;99.90;;;;;;5062139;28;20715;-61
2022/11/17 04:18:17;;;;;;;1.55;1.15;;;12.00;99.90;;;;;;5052647;28;20216;-61
2022/11/17 04:20:43;;;;;;;3.63;0.82;;;11.90;99.90;;;;;;5053567;28;20178;-62
2022/11/17 04:23:12;;;;;;;9.40;1.70;;;12.00;99.90;;;;;;5085742;28;20188;-62
2022/11/17 04:28:36;;;;;;;3.80;1.50;;;12.00;99.90;;;;;;5053677;28;20239;-60
2022/11/17 04:31:13;;;;;;;1.67;1.00;;;11.90;99.90;;;;;;5059298;28;20204;-61
2022/11/17 04:33:42;;;;;;;4.90;1.52;;;11.90;99.90;;;;;;5053075;28;20186;-61
2022/11/17 04:36:09;;;;;;;3.45;0.88;;;12.00;99.90;;;;;;5061230;28;20169;-61
2022/11/17 04:38:35;;;;;;;8.95;1.50;;;12.00;99.90;;;;;;5057695;28;20194;-62
2022/11/17 04:43:51;;;;;;;4.55;1.60;;;12.00;99.90;;;;;;5056710;28;20555;-60
2022/11/17 04:46:18;;;;;;;4.65;1.33;;;11.90;99.90;;;;;;5069276;28;20511;-60
2022/11/17 04:48:44;;;;;;;1.73;1.50;;;11.90;99.90;;;;;;5064104;28;20188;-61
2022/11/17 04:51:10;;;;;;;4.32;1.25;;;11.90;99.90;;;;;;5089690;28;20213;-60
2022/11/17 04:53:36;;;;;;;4.30;0.98;;;11.90;99.90;;;;;;5052643;28;20201;-63
2022/11/17 04:56:02;;;;;;;7.97;1.45;;;11.90;99.90;;;;;;5057138;28;20605;-59
2022/11/17 04:58:28;;;;;;;3.05;1.10;;;11.80;99.90;;;;;;5064210;28;20208;-60
2022/11/17 05:00:53;;;;;;;2.20;1.13;;;11.80;99.90;;;;;;5050500;28;20720;-61
2022/11/17 05:03:19;;;;;;;2.83;1.00;;;11.80;99.90;;;;;;5063624;28;20198;-60
2022/11/17 05:05:46;;;;;;;2.83;0.90;;;11.80;99.90;;;;;;5055579;28;20635;-60
2022/11/17 05:08:12;;;;;;;3.15;1.02;;;11.80;99.90;;;;;;5064673;28;20259;-59
2022/11/17 05:13:23;;;;;;;3.97;0.95;;;11.50;99.90;;;;;;5055877;28;20660;-60
2022/11/17 05:18:41;;;;;;;1.95;0.50;;;11.50;99.90;;;;;;5060294;28;20207;-60
2022/11/17 05:21:09;;;;;;;3.72;0.82;;;11.50;99.90;;;;;;5059672;28;20646;-60
2022/11/17 05:23:54;;;;;;;0.82;0.82;;;11.50;99.90;;;;;;5055974;28;20189;-60
2022/11/17 05:26:26;;;;;;;2.53;0.90;;;11.40;99.90;;;;;;5059709;28;20185;-60
2022/11/17 05:28:53;;;;;;;1.55;1.02;;;11.30;99.90;;;;;;5057252;28;20182;-60
2022/11/17 05:31:19;;;;;;;0.90;0.82;;;11.30;99.90;;;;;;5055219;28;20184;-61
2022/11/17 05:33:45;;;;;;;2.58;0.65;;;11.30;99.90;;;;;;5058140;28;20269;-59
2022/11/17 05:36:11;;;;;;;0.63;0.50;;;11.30;99.90;;;;;;5055906;28;20189;-60
2022/11/17 05:38:36;;;;;;;3.80;0.90;;;11.30;99.90;;;;;;5056148;28;20236;-61
2022/11/17 05:41:02;;;;;;;0.73;0.73;;;11.20;99.90;;;;;;5067541;28;20221;-60
2022/11/17 05:43:28;;;;;;;1.48;0.88;;;11.30;99.90;;;;;;5063681;28;20192;-61
2022/11/17 05:45:53;;;;;;;2.40;1.07;;;11.30;99.90;;;;;;5061047;28;20218;-60
2022/11/17 05:48:19;;;;;;;0.43;0.43;;;11.30;99.90;;;;;;5088812;28;20708;-60
2022/11/17 05:50:45;;;;;;;0.95;0.82;;;11.20;99.90;;;;;;5055788;28;20186;-60
2022/11/17 05:53:10;;;;;;;2.17;1.00;;;11.20;99.90;;;;;;5055993;28;20639;-60
2022/11/17 05:55:36;;;;;;;1.47;0.77;;;11.20;99.90;;;;;;5071411;28;20544;-61
2022/11/17 05:58:16;;;;;;;4.90;0.83;;;11.20;99.90;;;;;;5057777;28;20666;-60
2022/11/17 06:00:43;;;;;;;0.57;0.57;;;11.20;99.90;;;;;;5070532;28;20184;-60
2022/11/17 06:03:15;;;;;;;2.07;1.10;;;11.20;99.90;;;;;;5054665;28;20204;-60
2022/11/17 06:05:41;;;;;;;1.83;0.77;;;11.30;99.90;;;;;;5069429;28;20201;-61
2022/11/17 06:08:07;;;;;;;0.87;0.87;;;11.20;99.90;;;;;;5062734;28;20190;-61
2022/11/17 06:10:33;;;;;;;2.40;0.80;;;11.20;99.90;;;;;;5051530;28;20179;-60
2022/11/17 06:12:59;;;;;;;4.33;0.80;;;11.30;99.90;;;;;;5054258;28;20205;-61
2022/11/17 06:15:25;;;;;;;0.87;0.70;;;11.20;99.90;;;;;;5055393;28;20174;-61
2022/11/17 06:18:23;;;;;;;1.77;0.90;;;11.20;99.90;;;;;;5055662;28;20194;-60
2022/11/17 06:20:52;;;;;;;2.27;1.07;;;11.20;99.90;;;;;;5058787;28;20700;-61
2022/11/17 06:23:20;;;;;;;2.03;1.50;;;11.20;99.90;;;;;;5063376;28;20189;-61
2022/11/17 06:25:46;;;;;;;4.83;1.33;;;11.20;99.90;;;;;;5070030;28;20540;-61
2022/11/17 06:28:16;;;;;;;0.63;0.63;;;11.20;99.90;;;;;;5065886;28;20195;-61
2022/11/17 06:30:42;;;;;;;1.70;0.97;;;11.10;99.90;;;;;;5060412;28;20178;-61
2022/11/17 06:33:11;;;;;;;6.03;0.87;;;11.10;99.90;;;;;;5073748;28;20186;-61
2022/11/17 06:35:37;;;;;;;3.27;1.10;;;11.00;99.90;;;;;;5055118;28;20189;-61
2022/11/17 06:38:03;;;;;;;0.60;0.60;;;11.00;99.90;;;;;;5068845;28;20206;-61
2022/11/17 06:40:28;;;;;;;1.03;0.90;;;11.10;99.90;;;;;;5070006;28;20646;-61
2022/11/17 06:43:07;;;;;;;0.60;0.60;;;11.20;99.90;;;;;;5072375;28;20193;-62
2022/11/17 06:45:43;;;;;;;3.90;1.00;;;11.20;99.90;;;;;;5060775;28;20185;-63
2022/11/17 06:48:11;;;;;;;1.13;0.80;;;11.20;99.90;;;;;;5054927;28;20177;-61
2022/11/17 06:50:37;;;;;;;2.03;1.10;;;11.20;99.90;;;;;;5058022;28;20647;-62
2022/11/17 06:53:05;;;;;;;1.40;1.10;;;11.20;99.90;;;;;;5071158;28;20213;-62
2022/11/17 06:55:31;;;;;;;1.80;1.17;;;11.20;99.90;;;;;;5062256;28;20265;-61
2022/11/17 06:58:05;;;;;;;6.18;2.15;;;11.20;99.90;;;;;;5057327;28;20227;-62
2022/11/17 07:00:32;;;;;;;1.52;1.02;;;11.10;99.90;;;;;;5072548;28;20186;-61
2022/11/17 07:03:02;;;;;;;1.13;1.00;;;11.20;99.90;;;;;;5068286;28;20181;-60
2022/11/17 07:05:29;;;;;;;2.07;1.00;;;11.20;99.90;;;;;;5060158;28;20218;-61
2022/11/17 07:07:59;;;;;;;2.27;0.87;;;11.20;99.90;;;;;;5067865;28;20189;-60
2022/11/17 07:10:25;;;;;;;1.13;0.97;;;11.20;99.90;;;;;;5054619;28;20186;-61
2022/11/17 07:12:51;;;;;;;2.37;2.20;;;11.10;99.90;;;;;;5086249;28;20198;-64
2022/11/17 07:15:16;;;;;;;0.90;0.83;;;11.20;99.90;;;;;;5055048;28;20193;-61
2022/11/17 07:17:42;;;;;;;2.80;1.43;;;11.10;99.90;;;;;;5052870;28;20221;-60
2022/11/17 07:20:09;;;;;;;1.07;0.73;;;11.00;99.90;;;;;;5057850;28;20552;-60
2022/11/17 07:22:36;;;;;;;1.10;0.60;;;11.00;99.90;;;;;;5057368;28;20189;-61
2022/11/17 07:25:02;;;;;;;2.97;0.85;;;11.10;99.90;;;;;;5062884;28;20639;-62
2022/11/17 07:27:29;;;;;;;3.33;0.60;;;11.10;99.90;;;;;;5062140;28;20182;-62
2022/11/17 07:29:55;;;;;;;0.57;0.53;;;11.10;99.90;;;;;;5066943;28;20273;-61
2022/11/17 07:32:21;;;;;;;0.87;0.80;;;11.20;99.90;;;;;;5056491;28;20261;-61
2022/11/17 07:34:46;;;;;;;1.03;0.50;;;11.10;99.90;;;;;;5063157;28;20268;-67
2022/11/17 07:37:12;;;;;;;1.83;0.82;;;11.10;99.90;;;;;;5057199;28;20284;-68
2022/11/17 07:39:38;;;;;;;0.70;0.60;;;11.20;99.90;;;;;;5092480;28;20718;-61
2022/11/17 07:42:03;;;;;;;1.93;0.90;;;11.20;99.90;;;;;;5062067;28;20178;-60
2022/11/17 07:44:29;;;;;;;1.70;0.90;;;11.10;99.90;;;;;;5058849;28;20190;-60
2022/11/17 07:46:55;;;;;;;1.08;0.77;;;11.10;99.90;;;;;;5055343;28;20623;-60
2022/11/17 07:49:21;;;;;;;1.13;0.68;;;11.10;99.90;;;;;;5060869;28;20184;-60
2022/11/17 07:51:47;;;;;;;0.85;0.85;;;11.10;99.90;;;;;;5059215;28;20178;-61
2022/11/17 07:54:12;;;;;;;2.10;0.90;;;11.10;99.90;;;;;;5057453;28;20216;-60
2022/11/17 07:56:38;;;;;;;0.63;0.60;;;11.00;99.90;;;;;;5054253;28;20181;-61
2022/11/17 07:59:03;;;;;;;1.60;0.60;;;11.00;99.90;;;;;;5066772;28;20292;-61
2022/11/17 08:01:29;;;;;;;3.93;0.70;;;11.00;99.90;;;;;;5082244;28;20174;-66
2022/11/17 08:03:55;;;;;;;1.00;0.90;;;11.00;99.90;;;;;;5055035;28;20173;-61
2022/11/17 08:06:22;;;;;;;3.93;0.70;;;11.00;99.90;;;;;;5073011;28;20189;-60
2022/11/17 08:08:48;;;;;;;1.07;0.87;;;11.10;99.90;;;;;;5044675;28;20189;-61
2022/11/17 08:11:14;;;;;;;1.40;1.00;;;11.10;99.90;;;;;;5053654;28;20507;-61
2022/11/17 08:13:41;;;;;;;4.03;0.77;;;11.10;99.90;;;;;;5051989;28;20547;-61
2022/11/17 08:16:08;;;;;;;0.90;0.90;;;11.00;99.90;;;;;;5067854;28;20178;-61
2022/11/17 08:18:35;;;;;;;0.63;0.63;;;11.10;99.90;;;;;;5060617;28;20232;-61
2022/11/17 08:21:05;;;;;;;0.50;0.50;;;11.10;99.90;;;;;;5052869;28;20185;-60
2022/11/17 08:23:31;;;;;;;0.83;0.70;;;11.10;99.90;;;;;;5054575;28;20174;-60
2022/11/17 08:25:57;;;;;;;4.17;1.10;;;11.20;99.90;;;;;;5052938;28;20231;-60
2022/11/17 08:28:23;;;;;;;0.93;0.80;;;11.20;99.90;;;;;;5052813;28;20584;-62
2022/11/17 08:30:49;;;;;;;1.77;0.87;;;11.20;99.90;;;;;;5052500;28;20192;-60
2022/11/17 08:33:15;;;;;;;1.83;0.77;;;11.30;99.90;;;;;;5064613;28;20186;-61
2022/11/17 08:35:40;;;;;;;1.27;0.83;;;11.30;99.90;;;;;;5059888;28;20713;-61
2022/11/17 08:38:06;;;;;;;1.08;0.90;;;11.30;99.90;;;;;;5052500;28;20206;-62
2022/11/17 08:40:32;;;;;;;1.75;0.90;;;11.30;99.90;;;;;;5051587;28;20216;-62
2022/11/17 08:42:58;;;;;;;3.85;1.30;;;11.40;99.90;;;;;;5052514;28;20186;-61
2022/11/17 08:45:24;;;;;;;0.70;0.70;;;11.30;99.90;;;;;;5054555;28;20260;-61
2022/11/17 08:47:50;;;;;;;2.38;1.00;;;11.30;99.90;;;;;;5085341;28;20201;-61
2022/11/17 08:50:17;;;;;;;3.90;0.90;;;11.30;99.90;;;;;;5057304;28;20598;-62
2022/11/17 08:52:46;;;;;;;1.92;0.93;;;11.40;99.90;;;;;;5056619;28;20165;-61
2022/11/17 08:55:12;;;;;;;1.58;0.82;;;11.50;99.90;;;;;;5057849;28;20375;-62
2022/11/17 08:57:38;;;;;;;2.15;0.77;;;11.60;99.90;;;;;;5063827;28;20297;-61
2022/11/17 09:00:05;;;;;;;2.95;0.50;;;11.60;99.90;;;;;;5064761;28;20186;-61
2022/11/17 09:02:31;;;;;;;3.13;0.68;;;11.70;99.90;;;;;;5054455;28;20186;-61
2022/11/17 09:04:56;;;;;;;3.05;0.80;;;11.70;99.90;;;;;;5053008;28;20178;-61
2022/11/17 09:07:22;;;;;;;3.42;0.70;;;11.80;99.90;;;;;;5054148;28;20185;-60
2022/11/17 09:09:48;;;;;;;1.60;1.05;;;11.90;99.90;;;;;;5062507;28;20174;-60
2022/11/17 09:12:15;;;;;;;1.55;0.60;;;12.00;99.90;;;;;;5069638;28;20208;-60
2022/11/17 09:14:41;;;;;;;1.83;0.80;;;12.00;99.90;;;;;;5069901;28;20522;-60
2022/11/17 09:17:07;;;;;;;2.03;0.88;;;12.00;99.90;;;;;;5060441;28;20658;-59
2022/11/17 09:19:32;;;;;;;0.68;0.68;;;12.00;99.90;;;;;;5056449;28;20182;-61
2022/11/17 09:21:58;;;;;;;6.22;0.60;;;12.00;99.90;;;;;;5056694;28;20186;-61
2022/11/17 09:24:25;;;;;;;4.63;0.85;;;12.00;99.90;;;;;;5055380;28;20189;-61
2022/11/17 09:26:53;;;;;;;2.78;0.98;;;12.10;99.90;;;;;;5060817;28;20673;-60
2022/11/17 09:29:19;;;;;;;2.50;1.08;;;12.10;99.90;;;;;;5068519;28;20185;-61
2022/11/17 09:31:45;;;;;;;5.60;0.80;;;12.10;99.90;;;;;;5056589;28;20178;-62
2022/11/17 09:34:10;;;;;;;2.70;0.85;;;12.30;99.90;;;;;;5056498;28;20174;-61
2022/11/17 09:36:36;;;;;;;2.90;0.95;;;12.40;99.90;;;;;;5059385;28;20256;-60
2022/11/17 09:39:02;;;;;;;1.13;0.60;;;12.40;99.90;;;;;;5057644;28;20528;-61
2022/11/17 09:41:40;;;;;;;0.40;0.40;;;12.50;99.90;;;;;;5066765;28;20650;-61
2022/11/17 09:44:30;;;;;;;1.33;1.10;;;12.50;99.90;;;;;;5056884;28;20178;-61
2022/11/17 09:47:08;;;;;;;1.45;0.82;;;12.50;99.90;;;;;;5055953;28;20196;-62
2022/11/17 09:49:52;;;;;;;0.75;0.70;;;12.70;99.90;;;;;;5055649;28;20197;-63
2022/11/17 09:52:33;;;;;;;1.27;0.70;;;12.80;99.90;;;;;;5059682;28;20236;-62
2022/11/17 09:55:08;;;;;;;0.50;0.50;;;13.00;99.90;;;;;;5056193;28;20538;-61
2022/11/17 09:57:47;;;;;;;0.82;0.68;;;13.00;99.90;;;;;;5056366;28;20247;-62
2022/11/17 10:00:22;;;;;;;1.00;0.93;;;13.00;99.90;;;;;;5060699;28;20184;-62
2022/11/17 10:02:49;;;;;;;1.13;1.02;;;13.00;99.90;;;;;;5055838;28;20209;-62
2022/11/17 10:05:28;;;;;;;2.47;0.82;;;13.10;99.90;;;;;;5060300;28;20587;-61
2022/11/17 10:07:59;;;;;;;1.67;0.93;;;13.10;99.90;;;;;;5060582;28;20180;-61
2022/11/17 10:10:46;;;;;;;0.68;0.60;;;13.10;99.90;;;;;;5060659;28;20261;-62
2022/11/17 10:13:34;;;;;;;4.53;1.95;;;13.10;99.90;;;;;;5059966;28;20276;-62
2022/11/17 10:16:04;;;;;;;1.85;0.90;;;13.20;99.90;;;;;;5058468;28;20257;-62
2022/11/17 10:18:37;;;;;;;3.72;1.30;;;13.10;99.90;;;;;;5055645;28;20198;-62
2022/11/17 10:21:05;;;;;;;0.73;0.73;;;13.10;99.90;;;;;;5088686;28;20192;-63
2022/11/17 10:23:42;;;;;;;2.67;0.82;;;13.10;99.90;;;;;;5064714;28;20706;-62
2022/11/17 10:26:11;;;;;;;4.50;1.38;;;13.10;99.90;;;;;;5071686;28;20193;-65
2022/11/17 10:28:37;;;;;;;4.82;1.30;;;13.10;99.90;;;;;;5057340;28;20170;-62
2022/11/17 10:31:12;;;;;;;5.68;1.80;;;13.00;99.90;;;;;;5054235;28;20174;-62
2022/11/17 10:33:43;;;;;;;2.83;1.13;;;12.70;99.90;;;;;;5055217;28;20561;-61
2022/11/17 10:36:29;;;;;;;0.80;0.80;;;12.70;99.90;;;;;;5055694;28;20607;-61
2022/11/17 10:38:57;;;;;;;5.90;0.93;;;12.70;99.90;;;;;;5068805;28;20181;-61
2022/11/17 10:41:26;;;;;;;1.27;1.20;;;12.50;99.90;;;;;;5059996;28;20189;-61
2022/11/17 10:44:20;;;;;;;2.03;1.02;;;12.40;99.90;;;;;;5058181;28;20397;-61
2022/11/17 10:46:53;;;;;;;0.98;0.90;;;12.40;99.90;;;;;;5050645;28;20190;-64
2022/11/17 10:49:25;;;;;;;0.80;0.80;;;12.40;99.90;;;;;;5054649;28;20178;-62
2022/11/17 10:52:10;;;;;;;4.72;1.48;;;12.30;99.90;;;;;;5061518;28;20168;-62
2022/11/17 10:54:36;;;;;;;2.75;0.70;;;12.10;99.90;;;;;;5051497;28;20635;-65
2022/11/17 10:57:08;;;;;;;0.95;0.93;;;12.00;99.90;;;;;;5056210;28;20216;-60
2022/11/17 10:59:56;;;;;;;5.05;1.08;;;11.90;99.90;;;;;;5051810;28;20214;-61
2022/11/17 11:02:34;;;;;;;2.00;0.90;;;11.90;99.90;;;;;;5092001;28;20181;-63
2022/11/17 11:05:10;;;;;;;0.82;0.82;;;12.10;99.90;;;;;;5053979;28;20177;-62
2022/11/17 11:07:36;;;;;;;0.98;0.90;;;12.30;99.90;;;;;;5051085;28;20256;-62
2022/11/17 11:10:24;;;;;;;1.30;1.20;;;12.40;99.90;;;;;;5051850;28;20183;-62
2022/11/17 11:13:25;;;;;;;1.15;0.90;;;12.60;99.90;;;;;;5052923;28;20541;-60
2022/11/17 11:15:52;;;;;;;1.42;0.93;;;12.70;99.90;;;;;;5047386;28;20181;-62
2022/11/17 11:18:19;;;;;;;0.80;0.80;;;12.80;99.90;;;;;;5053721;28;20228;-62
2022/11/17 11:21:22;;;;;;;0.80;0.80;;;12.80;99.90;;;;;;5059829;28;20196;-62
2022/11/17 11:24:12;;;;;;;3.17;0.80;;;12.90;99.90;;;;;;5044792;28;20193;-63
2022/11/17 11:27:03;;;;;;;5.70;1.30;;;13.10;99.90;;;;;;5055067;28;20174;-63
2022/11/17 11:29:59;;;;;;;1.38;0.98;;;13.20;99.90;;;;;;5052564;28;20182;-62
2022/11/17 11:32:55;;;;;;;1.23;0.90;;;13.30;99.90;;;;;;5050246;28;20208;-66
2022/11/17 11:35:55;;;;;;;2.65;1.35;;;13.30;99.90;;;;;;5052173;28;20174;-65
2022/11/17 11:38:40;;;;;;;1.45;1.10;;;13.20;99.90;;;;;;5057811;28;20193;-65
2022/11/17 11:41:24;;;;;;;1.38;1.10;;;13.30;99.90;;;;;;5054534;28;20275;-63
2022/11/17 11:44:12;;;;;;;0.55;0.55;;;13.30;99.90;;;;;;5056500;28;20174;-62
2022/11/17 11:46:56;;;;;;;4.10;2.58;;;13.30;99.90;;;;;;5058154;28;20204;-62
2022/11/17 11:49:29;;;;;;;3.00;1.27;;;13.40;99.90;;;;;;5054214;28;20209;-63
2022/11/17 11:51:55;;;;;;;0.65;0.45;;;13.30;99.90;;;;;;5058028;28;20181;-64
2022/11/17 11:54:26;;;;;;;3.20;1.23;;;13.20;99.90;;;;;;5048985;28;20193;-64
2022/11/17 11:56:53;;;;;;;1.45;0.82;;;13.30;99.90;;;;;;5050868;28;20205;-63
2022/11/17 11:59:25;;;;;;;0.80;0.65;;;13.60;99.90;;;;;;5049211;28;20213;-64
2022/11/17 12:02:12;;;;;;;3.50;1.20;;;13.80;99.90;;;;;;5048969;28;20490;-63
2022/11/17 12:05:10;;;;;;;0.90;0.90;;;13.90;99.90;;;;;;5052926;28;20183;-65
2022/11/17 12:07:47;;;;;;;2.30;0.90;;;13.90;99.90;;;;;;5054128;28;20198;-64
2022/11/17 12:10:18;;;;;;;1.15;0.90;;;13.80;99.90;;;;;;5065594;28;20177;-64
2022/11/17 12:12:46;;;;;;;3.92;0.93;;;13.60;99.90;;;;;;5051958;28;20198;-63
2022/11/17 12:15:11;;;;;;;3.17;1.00;;;13.60;99.90;;;;;;5087704;28;20166;-63
2022/11/17 12:17:51;;;;;;;0.65;0.65;;;13.70;99.90;;;;;;5051518;28;20244;-64
2022/11/17 12:20:35;;;;;;;2.33;0.70;;;13.60;99.90;;;;;;5052837;28;20598;-65
2022/11/17 12:23:17;;;;;;;2.25;0.80;;;13.50;99.90;;;;;;5057922;28;20216;-62
2022/11/17 12:25:49;;;;;;;1.13;1.02;;;13.50;99.90;;;;;;5053608;28;20178;-63
2022/11/17 12:28:36;;;;;;;5.55;0.75;;;13.50;99.90;;;;;;5056379;28;20174;-62
2022/11/17 12:31:09;;;;;;;0.60;0.60;;;13.50;99.90;;;;;;5056079;28;20563;-63
2022/11/17 12:33:53;;;;;;;0.55;0.55;;;13.30;99.90;;;;;;5066690;28;20185;-63
2022/11/17 12:36:26;;;;;;;1.10;0.70;;;13.10;99.90;;;;;;5060325;28;20186;-63
2022/11/17 12:38:53;;;;;;;0.98;0.85;;;13.00;99.90;;;;;;5066370;28;20216;-63
2022/11/17 12:41:47;;;;;;;2.40;0.90;;;12.90;99.90;;;;;;5069744;28;20230;-63
2022/11/17 12:44:37;;;;;;;1.20;1.20;;;13.00;99.90;;;;;;5061627;28;20194;-62
2022/11/17 12:47:09;;;;;;;0.90;0.82;;;13.10;99.90;;;;;;5053081;28;20275;-62
2022/11/17 12:49:57;;;;;;;2.75;1.60;;;13.00;99.90;;;;;;5061991;28;20653;-63
2022/11/17 12:52:42;;;;;;;3.67;1.77;;;13.10;99.90;;;;;;5049879;28;20189;-61
2022/11/17 12:55:21;;;;;;;6.90;1.55;;;13.00;99.90;;;;;;5054884;28;20294;-62
2022/11/17 12:57:54;;;;;;;2.60;1.63;;;12.90;99.90;;;;;;5061777;28;20292;-63
2022/11/17 13:00:24;;;;;;;0.90;0.90;;;12.90;99.90;;;;;;5057744;28;20170;-63
2022/11/17 13:02:56;;;;;;;0.75;0.75;;;13.00;99.90;;;;;;5052545;28;20182;-62
2022/11/17 13:05:24;;;;;;;2.40;1.17;;;13.00;99.90;;;;;;5052727;28;20182;-63
2022/11/17 13:08:06;;;;;;;2.75;1.27;;;13.20;99.90;;;;;;5052355;28;20531;-63
2022/11/17 13:10:31;;;;;;;2.35;1.20;;;13.30;99.90;;;;;;5053290;28;20216;-63
2022/11/17 13:13:20;;;;;;;0.68;0.65;;;13.40;99.90;;;;;;5052706;28;20210;-63
2022/11/17 13:15:51;;;;;;;1.42;0.88;;;13.40;99.90;;;;;;5052522;28;20170;-63
2022/11/17 13:18:29;;;;;;;2.47;1.45;;;13.60;99.90;;;;;;5052619;28;20658;-62
2022/11/17 13:20:55;;;;;;;1.27;1.23;;;13.70;99.90;;;;;;5052320;28;20307;-63
2022/11/17 13:23:26;;;;;;;1.65;0.95;;;13.80;99.90;;;;;;5052382;28;20261;-62
2022/11/17 13:26:36;;;;;;;1.38;0.85;;;13.70;99.90;;;;;;5052758;28;20643;-63
2022/11/17 13:29:18;;;;;;;1.77;0.95;;;13.60;99.90;;;;;;5033265;28;20198;-63
2022/11/17 13:31:45;;;;;;;1.30;1.20;;;13.60;99.90;;;;;;5044982;28;20213;-63
2022/11/17 13:34:20;;;;;;;0.90;0.90;;;13.50;99.90;;;;;;5050847;28;20197;-62
2022/11/17 13:36:56;;;;;;;1.10;1.10;;;13.50;99.90;;;;;;5058932;28;20181;-63
2022/11/17 13:39:22;;;;;;;1.48;1.00;;;13.40;99.90;;;;;;5056005;28;20178;-63
2022/11/17 13:41:48;;;;;;;2.33;1.80;;;13.50;99.90;;;;;;5051392;28;20624;-64
2022/11/17 13:44:20;;;;;;;2.65;1.30;;;13.40;99.90;;;;;;5078603;28;20212;-63
2022/11/17 13:46:45;;;;;;;1.55;0.98;;;13.40;99.90;;;;;;5068907;28;20181;-62